sensor_id;sensor_type;location;lat;lon;timestamp;P1;durP1;ratioP1;P2;durP2;ratioP2
1475;SDS011;730;48.870;12.542;2023-02-19T00:01:40;4.03;;;3.50;;
1475;SDS011;730;48.870;12.542;2023-02-19T00:04:20;2.80;;;2.60;;
1475;SDS011;730;48.870;12.542;2023-02-19T00:06:47;2.53;;;2.33;;
1475;SDS011;730;48.870;12.542;2023-02-19T00:09:14;3.37;;;3.07;;
1475;SDS011;730;48.870;12.542;2023-02-19T00:11:42;3.40;;;3.10;;
1475;SDS011;730;48.870;12.542;2023-02-19T00:14:09;2.60;;;2.40;;
1475;SDS011;730;48.870;12.542;2023-02-19T00:16:39;2.43;;;2.23;;
1475;SDS011;730;48.870;12.542;2023-02-19T00:19:06;3.17;;;2.87;;
1475;SDS011;730;48.870;12.542;2023-02-19T00:21:33;2.93;;;2.60;;
1475;SDS011;730;48.870;12.542;2023-02-19T00:24:00;2.97;;;2.20;;
1475;SDS011;730;48.870;12.542;2023-02-19T00:26:28;3.37;;;2.30;;
1475;SDS011;730;48.870;12.542;2023-02-19T00:28:55;3.00;;;1.80;;
1475;SDS011;730;48.870;12.542;2023-02-19T00:31:23;2.03;;;1.57;;
1475;SDS011;730;48.870;12.542;2023-02-19T00:33:52;2.03;;;1.53;;
1475;SDS011;730;48.870;12.542;2023-02-19T00:36:20;1.37;;;1.27;;
1475;SDS011;730;48.870;12.542;2023-02-19T00:38:48;1.87;;;1.40;;
1475;SDS011;730;48.870;12.542;2023-02-19T00:41:15;1.50;;;1.37;;
1475;SDS011;730;48.870;12.542;2023-02-19T00:46:17;1.90;;;1.17;;
1475;SDS011;730;48.870;12.542;2023-02-19T00:48:45;1.97;;;1.40;;
1475;SDS011;730;48.870;12.542;2023-02-19T00:51:12;2.43;;;1.57;;
1475;SDS011;730;48.870;12.542;2023-02-19T00:53:38;1.20;;;0.97;;
1475;SDS011;730;48.870;12.542;2023-02-19T00:56:05;1.33;;;1.10;;
1475;SDS011;730;48.870;12.542;2023-02-19T00:58:31;1.80;;;1.30;;
1475;SDS011;730;48.870;12.542;2023-02-19T01:00:57;1.93;;;1.60;;
1475;SDS011;730;48.870;12.542;2023-02-19T01:03:24;2.40;;;1.43;;
1475;SDS011;730;48.870;12.542;2023-02-19T01:05:50;1.60;;;1.20;;
1475;SDS011;730;48.870;12.542;2023-02-19T01:08:17;1.50;;;1.30;;
1475;SDS011;730;48.870;12.542;2023-02-19T01:10:43;1.67;;;1.53;;
1475;SDS011;730;48.870;12.542;2023-02-19T01:13:10;2.03;;;1.60;;
1475;SDS011;730;48.870;12.542;2023-02-19T01:15:36;1.70;;;1.23;;
1475;SDS011;730;48.870;12.542;2023-02-19T01:18:03;1.87;;;1.67;;
1475;SDS011;730;48.870;12.542;2023-02-19T01:20:29;1.60;;;1.40;;
1475;SDS011;730;48.870;12.542;2023-02-19T01:22:55;1.77;;;1.40;;
1475;SDS011;730;48.870;12.542;2023-02-19T01:25:21;2.03;;;1.70;;
1475;SDS011;730;48.870;12.542;2023-02-19T01:27:47;1.60;;;1.50;;
1475;SDS011;730;48.870;12.542;2023-02-19T01:30:13;2.00;;;1.80;;
1475;SDS011;730;48.870;12.542;2023-02-19T01:32:42;1.70;;;1.50;;
1475;SDS011;730;48.870;12.542;2023-02-19T01:35:08;3.00;;;1.50;;
1475;SDS011;730;48.870;12.542;2023-02-19T01:37:35;2.20;;;1.60;;
1475;SDS011;730;48.870;12.542;2023-02-19T01:40:01;1.97;;;1.67;;
1475;SDS011;730;48.870;12.542;2023-02-19T01:42:27;2.40;;;1.70;;
1475;SDS011;730;48.870;12.542;2023-02-19T01:45:12;2.83;;;1.70;;
1475;SDS011;730;48.870;12.542;2023-02-19T01:47:51;1.70;;;1.57;;
1475;SDS011;730;48.870;12.542;2023-02-19T01:50:20;2.37;;;1.93;;
1475;SDS011;730;48.870;12.542;2023-02-19T01:52:47;2.00;;;1.80;;
1475;SDS011;730;48.870;12.542;2023-02-19T01:55:13;2.23;;;2.03;;
1475;SDS011;730;48.870;12.542;2023-02-19T01:57:40;2.50;;;2.13;;
1475;SDS011;730;48.870;12.542;2023-02-19T02:00:11;1.67;;;1.57;;
1475;SDS011;730;48.870;12.542;2023-02-19T02:02:40;2.30;;;1.90;;
1475;SDS011;730;48.870;12.542;2023-02-19T02:05:09;2.30;;;1.87;;
1475;SDS011;730;48.870;12.542;2023-02-19T02:07:42;2.50;;;2.27;;
1475;SDS011;730;48.870;12.542;2023-02-19T02:10:27;2.57;;;2.37;;
1475;SDS011;730;48.870;12.542;2023-02-19T02:12:55;2.17;;;1.97;;
1475;SDS011;730;48.870;12.542;2023-02-19T02:15:23;2.30;;;2.10;;
1475;SDS011;730;48.870;12.542;2023-02-19T02:27:09;3.23;;;2.27;;
1475;SDS011;730;48.870;12.542;2023-02-19T02:32:29;2.33;;;2.13;;
1475;SDS011;730;48.870;12.542;2023-02-19T02:35:10;2.80;;;2.60;;
1475;SDS011;730;48.870;12.542;2023-02-19T02:37:38;3.13;;;2.83;;
1475;SDS011;730;48.870;12.542;2023-02-19T02:40:08;2.83;;;2.60;;
1475;SDS011;730;48.870;12.542;2023-02-19T02:42:37;3.10;;;2.40;;
1475;SDS011;730;48.870;12.542;2023-02-19T02:53:47;3.70;;;3.40;;
1475;SDS011;730;48.870;12.542;2023-02-19T02:56:36;3.43;;;3.13;;
1475;SDS011;730;48.870;12.542;2023-02-19T02:59:05;4.43;;;4.10;;
1475;SDS011;730;48.870;12.542;2023-02-19T03:01:35;4.50;;;4.10;;
1475;SDS011;730;48.870;12.542;2023-02-19T03:10:11;4.90;;;4.50;;
1475;SDS011;730;48.870;12.542;2023-02-19T03:12:41;5.47;;;4.97;;
1475;SDS011;730;48.870;12.542;2023-02-19T03:15:31;5.00;;;4.50;;
1475;SDS011;730;48.870;12.542;2023-02-19T03:18:20;3.97;;;3.63;;
1475;SDS011;730;48.870;12.542;2023-02-19T03:21:07;4.83;;;4.37;;
1475;SDS011;730;48.870;12.542;2023-02-19T03:23:34;4.37;;;3.97;;
1475;SDS011;730;48.870;12.542;2023-02-19T03:26:20;4.27;;;3.87;;
1475;SDS011;730;48.870;12.542;2023-02-19T03:28:46;5.77;;;4.23;;
1475;SDS011;730;48.870;12.542;2023-02-19T03:31:35;4.50;;;4.13;;
1475;SDS011;730;48.870;12.542;2023-02-19T03:34:04;4.50;;;4.10;;
1475;SDS011;730;48.870;12.542;2023-02-19T03:36:39;4.27;;;3.87;;
1475;SDS011;730;48.870;12.542;2023-02-19T03:39:29;4.63;;;4.23;;
1475;SDS011;730;48.870;12.542;2023-02-19T03:41:59;4.63;;;4.20;;
1475;SDS011;730;48.870;12.542;2023-02-19T03:47:25;4.50;;;4.10;;
1475;SDS011;730;48.870;12.542;2023-02-19T03:55:45;3.97;;;3.67;;
1475;SDS011;730;48.870;12.542;2023-02-19T04:01:26;4.33;;;3.93;;
1475;SDS011;730;48.870;12.542;2023-02-19T04:06:55;3.77;;;3.47;;
1475;SDS011;730;48.870;12.542;2023-02-19T04:09:24;4.80;;;4.07;;
1475;SDS011;730;48.870;12.542;2023-02-19T04:11:55;5.90;;;4.13;;
1475;SDS011;730;48.870;12.542;2023-02-19T04:14:27;4.70;;;4.30;;
1475;SDS011;730;48.870;12.542;2023-02-19T04:17:00;5.07;;;4.37;;
1475;SDS011;730;48.870;12.542;2023-02-19T04:19:30;4.37;;;3.97;;
1475;SDS011;730;48.870;12.542;2023-02-19T04:21:58;5.10;;;4.60;;
1475;SDS011;730;48.870;12.542;2023-02-19T04:24:30;5.87;;;4.80;;
1475;SDS011;730;48.870;12.542;2023-02-19T04:27:05;4.40;;;4.00;;
1475;SDS011;730;48.870;12.542;2023-02-19T04:29:33;4.43;;;4.13;;
1475;SDS011;730;48.870;12.542;2023-02-19T04:31:59;5.83;;;4.80;;
1475;SDS011;730;48.870;12.542;2023-02-19T04:34:25;4.33;;;3.93;;
1475;SDS011;730;48.870;12.542;2023-02-19T04:36:52;4.60;;;3.97;;
1475;SDS011;730;48.870;12.542;2023-02-19T04:39:18;4.83;;;4.43;;
1475;SDS011;730;48.870;12.542;2023-02-19T04:41:44;6.00;;;5.00;;
1475;SDS011;730;48.870;12.542;2023-02-19T04:44:10;5.03;;;4.33;;
1475;SDS011;730;48.870;12.542;2023-02-19T04:46:36;5.37;;;4.33;;
1475;SDS011;730;48.870;12.542;2023-02-19T04:49:04;4.83;;;4.33;;
1475;SDS011;730;48.870;12.542;2023-02-19T04:51:30;5.83;;;4.43;;
1475;SDS011;730;48.870;12.542;2023-02-19T04:53:56;4.50;;;4.10;;
1475;SDS011;730;48.870;12.542;2023-02-19T04:56:22;4.50;;;4.10;;
1475;SDS011;730;48.870;12.542;2023-02-19T04:58:48;5.20;;;4.73;;
1475;SDS011;730;48.870;12.542;2023-02-19T05:01:14;4.70;;;4.30;;
1475;SDS011;730;48.870;12.542;2023-02-19T05:03:41;6.93;;;5.33;;
1475;SDS011;730;48.870;12.542;2023-02-19T05:06:08;5.60;;;5.10;;
1475;SDS011;730;48.870;12.542;2023-02-19T05:08:36;6.53;;;5.43;;
1475;SDS011;730;48.870;12.542;2023-02-19T05:11:03;5.13;;;4.60;;
1475;SDS011;730;48.870;12.542;2023-02-19T05:13:30;5.10;;;4.60;;
1475;SDS011;730;48.870;12.542;2023-02-19T05:15:58;5.40;;;4.90;;
1475;SDS011;730;48.870;12.542;2023-02-19T05:18:27;4.47;;;4.17;;
1475;SDS011;730;48.870;12.542;2023-02-19T05:20:56;4.77;;;4.37;;
1475;SDS011;730;48.870;12.542;2023-02-19T05:23:23;4.70;;;4.30;;
1475;SDS011;730;48.870;12.542;2023-02-19T05:25:51;4.60;;;4.20;;
1475;SDS011;730;48.870;12.542;2023-02-19T05:28:18;5.37;;;4.87;;
1475;SDS011;730;48.870;12.542;2023-02-19T05:30:51;5.10;;;4.70;;
1475;SDS011;730;48.870;12.542;2023-02-19T05:33:19;5.10;;;4.60;;
1475;SDS011;730;48.870;12.542;2023-02-19T05:35:48;4.10;;;3.73;;
1475;SDS011;730;48.870;12.542;2023-02-19T05:38:16;5.10;;;4.70;;
1475;SDS011;730;48.870;12.542;2023-02-19T05:40:43;4.40;;;4.10;;
1475;SDS011;730;48.870;12.542;2023-02-19T05:43:10;4.30;;;3.90;;
1475;SDS011;730;48.870;12.542;2023-02-19T05:45:39;4.50;;;4.13;;
1475;SDS011;730;48.870;12.542;2023-02-19T05:48:05;4.10;;;3.80;;
1475;SDS011;730;48.870;12.542;2023-02-19T05:50:33;4.30;;;3.90;;
1475;SDS011;730;48.870;12.542;2023-02-19T05:53:00;3.70;;;3.40;;
1475;SDS011;730;48.870;12.542;2023-02-19T05:55:28;3.80;;;3.50;;
1475;SDS011;730;48.870;12.542;2023-02-19T05:57:54;4.10;;;3.67;;
1475;SDS011;730;48.870;12.542;2023-02-19T06:00:21;4.27;;;3.37;;
1475;SDS011;730;48.870;12.542;2023-02-19T06:02:47;4.30;;;3.90;;
1475;SDS011;730;48.870;12.542;2023-02-19T06:05:13;4.00;;;3.47;;
1475;SDS011;730;48.870;12.542;2023-02-19T06:07:39;3.80;;;3.50;;
1475;SDS011;730;48.870;12.542;2023-02-19T06:10:08;4.40;;;4.00;;
1475;SDS011;730;48.870;12.542;2023-02-19T06:12:35;4.10;;;3.80;;
1475;SDS011;730;48.870;12.542;2023-02-19T06:15:02;4.63;;;4.23;;
1475;SDS011;730;48.870;12.542;2023-02-19T06:17:29;4.20;;;3.80;;
1475;SDS011;730;48.870;12.542;2023-02-19T06:19:55;7.27;;;6.57;;
1475;SDS011;730;48.870;12.542;2023-02-19T06:22:21;4.30;;;3.90;;
1475;SDS011;730;48.870;12.542;2023-02-19T06:24:47;3.80;;;3.47;;
1475;SDS011;730;48.870;12.542;2023-02-19T06:27:13;3.47;;;3.10;;
1475;SDS011;730;48.870;12.542;2023-02-19T06:29:39;3.90;;;2.80;;
1475;SDS011;730;48.870;12.542;2023-02-19T06:32:07;3.00;;;2.27;;
1475;SDS011;730;48.870;12.542;2023-02-19T06:34:33;2.23;;;1.97;;
1475;SDS011;730;48.870;12.542;2023-02-19T06:36:59;3.13;;;1.37;;
1475;SDS011;730;48.870;12.542;2023-02-19T06:39:26;2.20;;;1.70;;
1475;SDS011;730;48.870;12.542;2023-02-19T06:41:58;1.57;;;1.37;;
1475;SDS011;730;48.870;12.542;2023-02-19T06:44:24;2.17;;;1.10;;
1475;SDS011;730;48.870;12.542;2023-02-19T06:46:50;2.77;;;1.03;;
1475;SDS011;730;48.870;12.542;2023-02-19T06:49:19;1.30;;;1.00;;
1475;SDS011;730;48.870;12.542;2023-02-19T06:51:46;1.97;;;0.83;;
1475;SDS011;730;48.870;12.542;2023-02-19T06:54:12;1.33;;;0.90;;
1475;SDS011;730;48.870;12.542;2023-02-19T06:56:38;1.30;;;0.70;;
1475;SDS011;730;48.870;12.542;2023-02-19T06:59:06;1.10;;;0.60;;
1475;SDS011;730;48.870;12.542;2023-02-19T07:01:36;1.20;;;0.70;;
1475;SDS011;730;48.870;12.542;2023-02-19T07:04:03;0.90;;;0.53;;
1475;SDS011;730;48.870;12.542;2023-02-19T07:06:30;0.90;;;0.50;;
1475;SDS011;730;48.870;12.542;2023-02-19T07:08:58;1.07;;;0.57;;
1475;SDS011;730;48.870;12.542;2023-02-19T07:11:24;1.20;;;0.80;;
1475;SDS011;730;48.870;12.542;2023-02-19T07:13:53;0.90;;;0.57;;
1475;SDS011;730;48.870;12.542;2023-02-19T07:16:21;0.90;;;0.50;;
1475;SDS011;730;48.870;12.542;2023-02-19T07:18:47;1.00;;;0.40;;
1475;SDS011;730;48.870;12.542;2023-02-19T07:21:14;0.93;;;0.50;;
1475;SDS011;730;48.870;12.542;2023-02-19T07:23:41;0.93;;;0.47;;
1475;SDS011;730;48.870;12.542;2023-02-19T07:26:09;0.80;;;0.50;;
1475;SDS011;730;48.870;12.542;2023-02-19T07:28:38;0.80;;;0.47;;
1475;SDS011;730;48.870;12.542;2023-02-19T07:31:15;1.07;;;0.60;;
1475;SDS011;730;48.870;12.542;2023-02-19T07:33:43;1.30;;;0.93;;
1475;SDS011;730;48.870;12.542;2023-02-19T07:36:10;1.03;;;0.60;;
1475;SDS011;730;48.870;12.542;2023-02-19T07:38:37;1.27;;;0.60;;
1475;SDS011;730;48.870;12.542;2023-02-19T07:41:03;1.00;;;0.57;;
1475;SDS011;730;48.870;12.542;2023-02-19T07:43:31;1.07;;;0.80;;
1475;SDS011;730;48.870;12.542;2023-02-19T07:46:06;1.10;;;0.63;;
1475;SDS011;730;48.870;12.542;2023-02-19T07:48:33;3.33;;;0.80;;
1475;SDS011;730;48.870;12.542;2023-02-19T07:51:01;1.13;;;0.80;;
1475;SDS011;730;48.870;12.542;2023-02-19T07:53:29;1.00;;;0.67;;
1475;SDS011;730;48.870;12.542;2023-02-19T07:55:58;1.00;;;0.50;;
1475;SDS011;730;48.870;12.542;2023-02-19T07:58:26;1.60;;;1.33;;
1475;SDS011;730;48.870;12.542;2023-02-19T08:00:53;3.17;;;1.20;;
1475;SDS011;730;48.870;12.542;2023-02-19T08:03:19;1.20;;;0.70;;
1475;SDS011;730;48.870;12.542;2023-02-19T08:05:45;1.40;;;1.00;;
1475;SDS011;730;48.870;12.542;2023-02-19T08:08:12;1.00;;;0.60;;
1475;SDS011;730;48.870;12.542;2023-02-19T08:10:39;1.33;;;0.80;;
1475;SDS011;730;48.870;12.542;2023-02-19T08:13:24;1.80;;;1.10;;
1475;SDS011;730;48.870;12.542;2023-02-19T08:15:52;2.13;;;1.00;;
1475;SDS011;730;48.870;12.542;2023-02-19T08:18:23;1.40;;;0.70;;
1475;SDS011;730;48.870;12.542;2023-02-19T08:20:51;1.00;;;0.60;;
1475;SDS011;730;48.870;12.542;2023-02-19T08:23:18;1.27;;;0.73;;
1475;SDS011;730;48.870;12.542;2023-02-19T08:25:47;1.10;;;0.60;;
1475;SDS011;730;48.870;12.542;2023-02-19T08:28:14;2.53;;;0.70;;
1475;SDS011;730;48.870;12.542;2023-02-19T08:30:41;1.03;;;0.77;;
1475;SDS011;730;48.870;12.542;2023-02-19T08:33:15;2.10;;;1.30;;
1475;SDS011;730;48.870;12.542;2023-02-19T08:35:43;1.50;;;1.23;;
1475;SDS011;730;48.870;12.542;2023-02-19T08:38:10;1.37;;;0.77;;
1475;SDS011;730;48.870;12.542;2023-02-19T08:40:37;3.67;;;2.57;;
1475;SDS011;730;48.870;12.542;2023-02-19T08:43:06;3.23;;;2.17;;
1475;SDS011;730;48.870;12.542;2023-02-19T08:45:33;1.10;;;0.67;;
1475;SDS011;730;48.870;12.542;2023-02-19T08:48:02;1.20;;;0.73;;
1475;SDS011;730;48.870;12.542;2023-02-19T08:50:28;1.50;;;0.60;;
1475;SDS011;730;48.870;12.542;2023-02-19T08:52:54;1.20;;;0.63;;
1475;SDS011;730;48.870;12.542;2023-02-19T08:55:20;1.37;;;0.83;;
1475;SDS011;730;48.870;12.542;2023-02-19T08:57:46;1.10;;;0.70;;
1475;SDS011;730;48.870;12.542;2023-02-19T09:00:12;1.13;;;0.70;;
1475;SDS011;730;48.870;12.542;2023-02-19T09:02:39;1.00;;;0.80;;
1475;SDS011;730;48.870;12.542;2023-02-19T09:05:05;1.30;;;0.97;;
1475;SDS011;730;48.870;12.542;2023-02-19T09:07:31;2.60;;;0.70;;
1475;SDS011;730;48.870;12.542;2023-02-19T09:09:58;1.00;;;0.60;;
1475;SDS011;730;48.870;12.542;2023-02-19T09:12:25;0.90;;;0.60;;
1475;SDS011;730;48.870;12.542;2023-02-19T09:14:51;0.93;;;0.70;;
1475;SDS011;730;48.870;12.542;2023-02-19T09:17:17;1.60;;;0.97;;
1475;SDS011;730;48.870;12.542;2023-02-19T09:19:50;1.13;;;0.67;;
1475;SDS011;730;48.870;12.542;2023-02-19T09:22:16;1.10;;;0.70;;
1475;SDS011;730;48.870;12.542;2023-02-19T09:24:42;1.27;;;0.70;;
1475;SDS011;730;48.870;12.542;2023-02-19T09:27:13;1.73;;;0.97;;
1475;SDS011;730;48.870;12.542;2023-02-19T09:29:40;2.20;;;1.00;;
1475;SDS011;730;48.870;12.542;2023-02-19T09:32:06;1.10;;;0.90;;
1475;SDS011;730;48.870;12.542;2023-02-19T09:34:32;1.17;;;0.70;;
1475;SDS011;730;48.870;12.542;2023-02-19T09:36:58;1.93;;;0.60;;
1475;SDS011;730;48.870;12.542;2023-02-19T09:39:24;1.20;;;0.70;;
1475;SDS011;730;48.870;12.542;2023-02-19T09:42:00;2.70;;;0.80;;
1475;SDS011;730;48.870;12.542;2023-02-19T09:44:34;1.10;;;0.53;;
1475;SDS011;730;48.870;12.542;2023-02-19T09:47:05;1.03;;;0.53;;
1475;SDS011;730;48.870;12.542;2023-02-19T09:49:38;1.20;;;0.80;;
1475;SDS011;730;48.870;12.542;2023-02-19T09:54:36;0.90;;;0.40;;
1475;SDS011;730;48.870;12.542;2023-02-19T09:57:04;1.00;;;0.60;;
1475;SDS011;730;48.870;12.542;2023-02-19T09:59:39;0.90;;;0.50;;
1475;SDS011;730;48.870;12.542;2023-02-19T10:02:15;0.90;;;0.50;;
1475;SDS011;730;48.870;12.542;2023-02-19T10:04:46;0.80;;;0.40;;
1475;SDS011;730;48.870;12.542;2023-02-19T10:07:25;1.10;;;0.60;;
1475;SDS011;730;48.870;12.542;2023-02-19T10:10:01;0.90;;;0.50;;
1475;SDS011;730;48.870;12.542;2023-02-19T10:12:38;1.20;;;0.70;;
1475;SDS011;730;48.870;12.542;2023-02-19T10:17:47;1.50;;;0.70;;
1475;SDS011;730;48.870;12.542;2023-02-19T10:20:14;0.90;;;0.50;;
1475;SDS011;730;48.870;12.542;2023-02-19T10:22:42;0.90;;;0.50;;
1475;SDS011;730;48.870;12.542;2023-02-19T10:25:15;0.90;;;0.57;;
1475;SDS011;730;48.870;12.542;2023-02-19T10:27:41;2.70;;;1.80;;
1475;SDS011;730;48.870;12.542;2023-02-19T10:30:42;1.23;;;0.80;;
1475;SDS011;730;48.870;12.542;2023-02-19T10:33:03;1.00;;;0.50;;
1475;SDS011;730;48.870;12.542;2023-02-19T10:35:34;0.97;;;0.60;;
1475;SDS011;730;48.870;12.542;2023-02-19T10:38:03;1.10;;;0.77;;
1475;SDS011;730;48.870;12.542;2023-02-19T10:40:33;1.23;;;0.80;;
1475;SDS011;730;48.870;12.542;2023-02-19T10:43:00;1.00;;;0.60;;
1475;SDS011;730;48.870;12.542;2023-02-19T10:47:54;1.30;;;0.80;;
1475;SDS011;730;48.870;12.542;2023-02-19T10:50:29;1.10;;;0.70;;
1475;SDS011;730;48.870;12.542;2023-02-19T10:52:57;1.13;;;0.63;;
1475;SDS011;730;48.870;12.542;2023-02-19T10:55:27;1.23;;;0.90;;
1475;SDS011;730;48.870;12.542;2023-02-19T10:57:55;1.43;;;0.80;;
1475;SDS011;730;48.870;12.542;2023-02-19T11:00:28;0.97;;;0.50;;
1475;SDS011;730;48.870;12.542;2023-02-19T11:03:12;1.00;;;0.70;;
1475;SDS011;730;48.870;12.542;2023-02-19T11:06:05;1.93;;;0.70;;
1475;SDS011;730;48.870;12.542;2023-02-19T11:08:44;2.10;;;1.10;;
1475;SDS011;730;48.870;12.542;2023-02-19T11:13:52;1.47;;;0.70;;
1475;SDS011;730;48.870;12.542;2023-02-19T11:16:21;1.10;;;0.60;;
1475;SDS011;730;48.870;12.542;2023-02-19T11:19:01;1.30;;;0.80;;
1475;SDS011;730;48.870;12.542;2023-02-19T11:21:28;1.53;;;0.80;;
1475;SDS011;730;48.870;12.542;2023-02-19T11:23:57;1.60;;;0.80;;
1475;SDS011;730;48.870;12.542;2023-02-19T11:26:27;1.40;;;1.10;;
1475;SDS011;730;48.870;12.542;2023-02-19T11:28:57;1.40;;;0.93;;
1475;SDS011;730;48.870;12.542;2023-02-19T11:31:29;1.97;;;0.93;;
1475;SDS011;730;48.870;12.542;2023-02-19T11:33:58;1.43;;;1.00;;
1475;SDS011;730;48.870;12.542;2023-02-19T11:36:30;1.57;;;1.00;;
1475;SDS011;730;48.870;12.542;2023-02-19T11:39:04;1.53;;;1.00;;
1475;SDS011;730;48.870;12.542;2023-02-19T11:49:53;2.77;;;1.27;;
1475;SDS011;730;48.870;12.542;2023-02-19T11:52:36;2.10;;;1.03;;
1475;SDS011;730;48.870;12.542;2023-02-19T11:55:33;1.20;;;0.70;;
1475;SDS011;730;48.870;12.542;2023-02-19T11:58:13;1.83;;;0.90;;
1475;SDS011;730;48.870;12.542;2023-02-19T12:00:58;1.73;;;1.13;;
1475;SDS011;730;48.870;12.542;2023-02-19T12:03:54;2.00;;;0.97;;
1475;SDS011;730;48.870;12.542;2023-02-19T12:12:16;1.20;;;1.00;;
1475;SDS011;730;48.870;12.542;2023-02-19T12:15:04;1.60;;;1.00;;
1475;SDS011;730;48.870;12.542;2023-02-19T12:17:42;1.67;;;0.97;;
1475;SDS011;730;48.870;12.542;2023-02-19T12:26:18;1.73;;;1.00;;
1475;SDS011;730;48.870;12.542;2023-02-19T12:41:02;2.47;;;1.17;;
1475;SDS011;730;48.870;12.542;2023-02-19T12:44:08;1.87;;;1.07;;
1475;SDS011;730;48.870;12.542;2023-02-19T12:46:35;1.40;;;0.90;;
1475;SDS011;730;48.870;12.542;2023-02-19T12:49:06;2.27;;;1.03;;
1475;SDS011;730;48.870;12.542;2023-02-19T12:54:13;2.40;;;1.10;;
1475;SDS011;730;48.870;12.542;2023-02-19T12:56:41;5.73;;;1.47;;
1475;SDS011;730;48.870;12.542;2023-02-19T12:59:28;1.53;;;1.17;;
1475;SDS011;730;48.870;12.542;2023-02-19T13:04:55;3.10;;;1.30;;
1475;SDS011;730;48.870;12.542;2023-02-19T13:07:49;1.80;;;1.33;;
1475;SDS011;730;48.870;12.542;2023-02-19T13:12:59;1.90;;;1.20;;
1475;SDS011;730;48.870;12.542;2023-02-19T13:15:33;1.73;;;1.30;;
1475;SDS011;730;48.870;12.542;2023-02-19T13:18:04;3.97;;;1.47;;
1475;SDS011;730;48.870;12.542;2023-02-19T13:20:44;1.63;;;1.50;;
1475;SDS011;730;48.870;12.542;2023-02-19T13:23:26;2.47;;;1.40;;
1475;SDS011;730;48.870;12.542;2023-02-19T13:31:43;2.30;;;1.07;;
1475;SDS011;730;48.870;12.542;2023-02-19T13:37:25;1.80;;;1.10;;
1475;SDS011;730;48.870;12.542;2023-02-19T13:39:52;1.90;;;1.23;;
1475;SDS011;730;48.870;12.542;2023-02-19T13:42:26;1.67;;;1.00;;
1475;SDS011;730;48.870;12.542;2023-02-19T13:44:56;1.67;;;1.00;;
1475;SDS011;730;48.870;12.542;2023-02-19T13:50:19;2.73;;;1.33;;
1475;SDS011;730;48.870;12.542;2023-02-19T13:52:51;1.97;;;1.23;;
1475;SDS011;730;48.870;12.542;2023-02-19T14:01:04;2.43;;;1.33;;
1475;SDS011;730;48.870;12.542;2023-02-19T14:03:54;1.93;;;1.00;;
1475;SDS011;730;48.870;12.542;2023-02-19T14:07:18;5.13;;;2.10;;
1475;SDS011;730;48.870;12.542;2023-02-19T14:22:45;1.47;;;1.33;;
1475;SDS011;730;48.870;12.542;2023-02-19T14:27:57;1.83;;;1.10;;
1475;SDS011;730;48.870;12.542;2023-02-19T14:33:42;1.97;;;1.20;;
1475;SDS011;730;48.870;12.542;2023-02-19T14:36:24;3.20;;;1.37;;
1475;SDS011;730;48.870;12.542;2023-02-19T14:39:00;2.43;;;1.10;;
1475;SDS011;730;48.870;12.542;2023-02-19T14:41:32;2.17;;;1.87;;
1475;SDS011;730;48.870;12.542;2023-02-19T14:44:03;2.73;;;1.00;;
1475;SDS011;730;48.870;12.542;2023-02-19T14:52:05;1.77;;;1.10;;
1475;SDS011;730;48.870;12.542;2023-02-19T14:54:41;1.13;;;0.73;;
1475;SDS011;730;48.870;12.542;2023-02-19T14:57:16;2.83;;;1.60;;
1475;SDS011;730;48.870;12.542;2023-02-19T14:59:52;2.30;;;1.70;;
1475;SDS011;730;48.870;12.542;2023-02-19T15:02:23;2.03;;;1.20;;
1475;SDS011;730;48.870;12.542;2023-02-19T15:04:53;1.43;;;0.90;;
1475;SDS011;730;48.870;12.542;2023-02-19T15:07:22;1.27;;;0.70;;
1475;SDS011;730;48.870;12.542;2023-02-19T15:09:59;1.73;;;0.80;;
1475;SDS011;730;48.870;12.542;2023-02-19T15:12:34;1.07;;;0.80;;
1475;SDS011;730;48.870;12.542;2023-02-19T15:15:15;1.70;;;1.20;;
1475;SDS011;730;48.870;12.542;2023-02-19T15:18:02;1.50;;;0.97;;
1475;SDS011;730;48.870;12.542;2023-02-19T15:20:34;1.33;;;0.87;;
1475;SDS011;730;48.870;12.542;2023-02-19T15:23:06;1.20;;;0.80;;
1475;SDS011;730;48.870;12.542;2023-02-19T15:25:34;1.60;;;1.03;;
1475;SDS011;730;48.870;12.542;2023-02-19T15:30:46;1.10;;;0.80;;
1475;SDS011;730;48.870;12.542;2023-02-19T15:33:15;1.53;;;0.80;;
1475;SDS011;730;48.870;12.542;2023-02-19T15:35:49;2.80;;;0.90;;
1475;SDS011;730;48.870;12.542;2023-02-19T15:38:18;1.67;;;1.00;;
1475;SDS011;730;48.870;12.542;2023-02-19T15:40:47;2.20;;;0.70;;
1475;SDS011;730;48.870;12.542;2023-02-19T15:43:24;2.37;;;0.90;;
1475;SDS011;730;48.870;12.542;2023-02-19T15:46:14;1.60;;;0.70;;
1475;SDS011;730;48.870;12.542;2023-02-19T15:49:31;1.57;;;0.97;;
1475;SDS011;730;48.870;12.542;2023-02-19T15:51:43;2.00;;;1.10;;
1475;SDS011;730;48.870;12.542;2023-02-19T15:54:16;1.20;;;0.87;;
1475;SDS011;730;48.870;12.542;2023-02-19T15:56:45;2.93;;;1.30;;
1475;SDS011;730;48.870;12.542;2023-02-19T16:01:46;1.50;;;1.00;;
1475;SDS011;730;48.870;12.542;2023-02-19T16:04:15;2.57;;;1.30;;
1475;SDS011;730;48.870;12.542;2023-02-19T16:06:52;2.30;;;1.20;;
1475;SDS011;730;48.870;12.542;2023-02-19T16:09:28;1.90;;;1.40;;
1475;SDS011;730;48.870;12.542;2023-02-19T16:12:02;3.97;;;1.30;;
1475;SDS011;730;48.870;12.542;2023-02-19T16:14:43;1.60;;;1.00;;
1475;SDS011;730;48.870;12.542;2023-02-19T16:17:13;1.90;;;1.20;;
1475;SDS011;730;48.870;12.542;2023-02-19T16:22:27;1.50;;;1.20;;
1475;SDS011;730;48.870;12.542;2023-02-19T16:24:57;2.00;;;1.50;;
1475;SDS011;730;48.870;12.542;2023-02-19T16:29:56;3.27;;;1.70;;
1475;SDS011;730;48.870;12.542;2023-02-19T16:32:23;1.70;;;1.33;;
1475;SDS011;730;48.870;12.542;2023-02-19T16:34:49;2.77;;;1.40;;
1475;SDS011;730;48.870;12.542;2023-02-19T16:42:35;1.63;;;1.40;;
1475;SDS011;730;48.870;12.542;2023-02-19T16:45:22;1.90;;;1.50;;
1475;SDS011;730;48.870;12.542;2023-02-19T16:47:49;2.30;;;1.43;;
1475;SDS011;730;48.870;12.542;2023-02-19T16:50:16;4.80;;;1.90;;
1475;SDS011;730;48.870;12.542;2023-02-19T16:53:04;2.70;;;1.60;;
1475;SDS011;730;48.870;12.542;2023-02-19T16:55:30;2.80;;;1.70;;
1475;SDS011;730;48.870;12.542;2023-02-19T16:57:59;2.43;;;1.80;;
1475;SDS011;730;48.870;12.542;2023-02-19T17:00:27;2.70;;;2.50;;
1475;SDS011;730;48.870;12.542;2023-02-19T17:02:56;3.20;;;1.63;;
1475;SDS011;730;48.870;12.542;2023-02-19T17:05:25;2.70;;;1.53;;
1475;SDS011;730;48.870;12.542;2023-02-19T17:07:53;4.03;;;1.87;;
1475;SDS011;730;48.870;12.542;2023-02-19T17:10:20;2.43;;;1.80;;
1475;SDS011;730;48.870;12.542;2023-02-19T17:12:50;3.90;;;2.00;;
1475;SDS011;730;48.870;12.542;2023-02-19T17:15:17;2.33;;;1.60;;
1475;SDS011;730;48.870;12.542;2023-02-19T17:17:43;2.60;;;1.77;;
1475;SDS011;730;48.870;12.542;2023-02-19T17:22:43;2.50;;;1.47;;
1475;SDS011;730;48.870;12.542;2023-02-19T17:25:10;2.30;;;1.60;;
1475;SDS011;730;48.870;12.542;2023-02-19T17:27:36;2.47;;;1.70;;
1475;SDS011;730;48.870;12.542;2023-02-19T17:30:04;2.37;;;1.70;;
1475;SDS011;730;48.870;12.542;2023-02-19T17:32:38;2.43;;;1.50;;
1475;SDS011;730;48.870;12.542;2023-02-19T17:35:04;3.60;;;1.77;;
1475;SDS011;730;48.870;12.542;2023-02-19T17:37:30;2.30;;;1.80;;
1475;SDS011;730;48.870;12.542;2023-02-19T17:39:56;2.73;;;1.70;;
1475;SDS011;730;48.870;12.542;2023-02-19T17:42:22;2.53;;;1.87;;
1475;SDS011;730;48.870;12.542;2023-02-19T17:44:51;2.57;;;1.60;;
1475;SDS011;730;48.870;12.542;2023-02-19T17:47:20;1.73;;;1.40;;
1475;SDS011;730;48.870;12.542;2023-02-19T17:49:48;5.37;;;2.00;;
1475;SDS011;730;48.870;12.542;2023-02-19T17:52:15;3.63;;;1.70;;
1475;SDS011;730;48.870;12.542;2023-02-19T17:54:42;2.40;;;1.60;;
1475;SDS011;730;48.870;12.542;2023-02-19T17:57:08;3.00;;;1.43;;
1475;SDS011;730;48.870;12.542;2023-02-19T17:59:35;1.33;;;1.10;;
1475;SDS011;730;48.870;12.542;2023-02-19T18:02:01;2.10;;;1.50;;
1475;SDS011;730;48.870;12.542;2023-02-19T18:04:27;1.97;;;1.27;;
1475;SDS011;730;48.870;12.542;2023-02-19T18:06:57;2.10;;;1.20;;
1475;SDS011;730;48.870;12.542;2023-02-19T18:09:23;3.00;;;1.30;;
1475;SDS011;730;48.870;12.542;2023-02-19T18:11:49;1.70;;;1.20;;